Terminal Aerodrome Forecast
Issued by NWS

Home | Current Version | Previous Version | Text Only | Print | Product List | Glossary Off
Versions: 1 2 3 4 5 6 7 8 9 10 11 12 13 14 15 16 17 18

562
FTUS43 KOAX 221736
TAFCDR
TAF
KCDR 221736Z 2218/2318 34005KT P6SM FEW030
     FM221900 36008KT P6SM SCT120
     FM230100 04017G24KT P6SM BKN100
     FM230500 04015G22KT P6SM BKN025
     FM230800 03012KT P6SM OVC012=

USA.gov is the U.S. government's official web portal to all federal, state and local government web resources and services.